ロングイェールビーン の空港の天気 - METARとTAF

スヴァールバル空港 ( ENSB / LYR ) - スヴァールバル諸島・ヤンマイエン島 ロングイェールビーン
飛行場実況気象(Metar)
観測時間08/05 09:20 CEST (08/05 07:20 UTC)
風向・風速西南西 2m/s
視程3000m
天気現象もや
全天の4割程度の雲 雲底高度 60m
全天の8割程度の雲 雲底高度 4570m
気温8℃
湿度93%
気圧1004hPa
METARENSB 050720Z 25004KT 3000 BR SCT002 BKN150 08/07 Q1004 TEMPO 1500 BCFG VV002 RMK WIND 1400FT 02003KT
過去の天気等 Google飛行場航空写真 Wunderground天気予報

過去48時間のMETAR

飛行場予報(TAF)
発表時間: -
5日8時 CEST ~ 5日11時 CEST に一時的に
視程300m
天気現象
全天を覆う雲 鉛直視程 30m
5日17時 CEST ~ 5日20時 CEST に一時的に
天気現象
全天の8割程度の雲 雲底高度 370m
TAF ENSB 0506/0606 27008KT CAVOK
TEMPO 0506/0509 0300 FG VV001
TEMPO 0515/0518 RA BKN012